sensor_id;sensor_type;location;lat;lon;timestamp;P1;durP1;ratioP1;P2;durP2;ratioP2
16642;SDS011;8435;52.184;5.406;2023-04-03T00:02:00;1.90;;;1.40;;
16642;SDS011;8435;52.184;5.406;2023-04-03T00:04:27;1.53;;;1.30;;
16642;SDS011;8435;52.184;5.406;2023-04-03T00:06:53;1.60;;;1.50;;
16642;SDS011;8435;52.184;5.406;2023-04-03T00:09:20;2.20;;;1.30;;
16642;SDS011;8435;52.184;5.406;2023-04-03T00:11:49;1.83;;;1.17;;
16642;SDS011;8435;52.184;5.406;2023-04-03T00:14:16;2.57;;;1.23;;
16642;SDS011;8435;52.184;5.406;2023-04-03T00:16:44;2.33;;;1.10;;
16642;SDS011;8435;52.184;5.406;2023-04-03T00:19:11;1.70;;;1.30;;
16642;SDS011;8435;52.184;5.406;2023-04-03T00:21:38;1.50;;;1.20;;
16642;SDS011;8435;52.184;5.406;2023-04-03T00:24:05;1.10;;;1.00;;
16642;SDS011;8435;52.184;5.406;2023-04-03T00:26:32;1.70;;;1.27;;
16642;SDS011;8435;52.184;5.406;2023-04-03T00:28:59;2.07;;;1.10;;
16642;SDS011;8435;52.184;5.406;2023-04-03T00:31:26;1.00;;;0.90;;
16642;SDS011;8435;52.184;5.406;2023-04-03T00:33:54;2.70;;;1.53;;
16642;SDS011;8435;52.184;5.406;2023-04-03T00:36:21;1.33;;;1.10;;
16642;SDS011;8435;52.184;5.406;2023-04-03T00:38:47;1.70;;;1.30;;
16642;SDS011;8435;52.184;5.406;2023-04-03T00:41:14;1.57;;;1.30;;
16642;SDS011;8435;52.184;5.406;2023-04-03T00:43:41;1.97;;;1.50;;
16642;SDS011;8435;52.184;5.406;2023-04-03T00:46:08;2.00;;;0.97;;
16642;SDS011;8435;52.184;5.406;2023-04-03T00:48:36;2.17;;;1.13;;
16642;SDS011;8435;52.184;5.406;2023-04-03T00:51:08;1.90;;;1.20;;
16642;SDS011;8435;52.184;5.406;2023-04-03T00:53:40;3.20;;;1.27;;
16642;SDS011;8435;52.184;5.406;2023-04-03T00:56:10;3.73;;;1.30;;
16642;SDS011;8435;52.184;5.406;2023-04-03T00:58:43;1.40;;;1.30;;
16642;SDS011;8435;52.184;5.406;2023-04-03T01:01:14;2.43;;;1.37;;
16642;SDS011;8435;52.184;5.406;2023-04-03T01:03:43;2.50;;;1.50;;
16642;SDS011;8435;52.184;5.406;2023-04-03T01:06:12;1.37;;;1.27;;
16642;SDS011;8435;52.184;5.406;2023-04-03T01:08:41;1.30;;;1.20;;
16642;SDS011;8435;52.184;5.406;2023-04-03T01:11:08;1.43;;;1.33;;
16642;SDS011;8435;52.184;5.406;2023-04-03T01:13:35;1.43;;;1.30;;
16642;SDS011;8435;52.184;5.406;2023-04-03T01:16:02;2.20;;;1.00;;
16642;SDS011;8435;52.184;5.406;2023-04-03T01:18:30;2.60;;;1.40;;
16642;SDS011;8435;52.184;5.406;2023-04-03T01:21:07;1.50;;;1.40;;
16642;SDS011;8435;52.184;5.406;2023-04-03T01:23:52;3.80;;;1.60;;
16642;SDS011;8435;52.184;5.406;2023-04-03T01:26:40;2.80;;;1.30;;
16642;SDS011;8435;52.184;5.406;2023-04-03T01:29:07;1.50;;;1.20;;
16642;SDS011;8435;52.184;5.406;2023-04-03T01:31:45;2.10;;;1.50;;
16642;SDS011;8435;52.184;5.406;2023-04-03T01:34:13;2.30;;;1.20;;
16642;SDS011;8435;52.184;5.406;2023-04-03T01:36:40;3.97;;;1.40;;
16642;SDS011;8435;52.184;5.406;2023-04-03T01:39:08;1.60;;;1.40;;
16642;SDS011;8435;52.184;5.406;2023-04-03T01:41:35;4.40;;;1.30;;
16642;SDS011;8435;52.184;5.406;2023-04-03T01:44:01;2.60;;;1.80;;
16642;SDS011;8435;52.184;5.406;2023-04-03T01:46:30;2.50;;;1.40;;
16642;SDS011;8435;52.184;5.406;2023-04-03T01:48:59;2.63;;;1.40;;
16642;SDS011;8435;52.184;5.406;2023-04-03T01:51:26;3.03;;;1.53;;
16642;SDS011;8435;52.184;5.406;2023-04-03T01:53:52;1.50;;;1.40;;
16642;SDS011;8435;52.184;5.406;2023-04-03T01:56:19;1.77;;;1.30;;
16642;SDS011;8435;52.184;5.406;2023-04-03T01:58:48;1.70;;;1.53;;
16642;SDS011;8435;52.184;5.406;2023-04-03T02:01:15;2.57;;;2.10;;
16642;SDS011;8435;52.184;5.406;2023-04-03T02:03:42;2.03;;;1.30;;
16642;SDS011;8435;52.184;5.406;2023-04-03T02:06:11;2.27;;;1.23;;
16642;SDS011;8435;52.184;5.406;2023-04-03T02:08:37;1.57;;;1.47;;
16642;SDS011;8435;52.184;5.406;2023-04-03T02:11:05;1.73;;;1.60;;
16642;SDS011;8435;52.184;5.406;2023-04-03T02:13:32;1.47;;;1.37;;
16642;SDS011;8435;52.184;5.406;2023-04-03T02:16:05;1.50;;;1.40;;
16642;SDS011;8435;52.184;5.406;2023-04-03T02:18:33;3.07;;;1.80;;
16642;SDS011;8435;52.184;5.406;2023-04-03T02:21:00;3.20;;;1.50;;
16642;SDS011;8435;52.184;5.406;2023-04-03T02:23:28;2.27;;;1.40;;
16642;SDS011;8435;52.184;5.406;2023-04-03T02:26:02;2.07;;;1.50;;
16642;SDS011;8435;52.184;5.406;2023-04-03T02:28:30;5.37;;;3.70;;
16642;SDS011;8435;52.184;5.406;2023-04-03T02:30:57;3.13;;;1.40;;
16642;SDS011;8435;52.184;5.406;2023-04-03T02:33:24;2.63;;;1.60;;
16642;SDS011;8435;52.184;5.406;2023-04-03T02:35:52;2.30;;;1.70;;
16642;SDS011;8435;52.184;5.406;2023-04-03T02:38:20;2.53;;;1.50;;
16642;SDS011;8435;52.184;5.406;2023-04-03T02:40:50;2.50;;;1.43;;
16642;SDS011;8435;52.184;5.406;2023-04-03T02:43:17;2.40;;;1.40;;
16642;SDS011;8435;52.184;5.406;2023-04-03T02:45:44;2.23;;;1.93;;
16642;SDS011;8435;52.184;5.406;2023-04-03T02:48:11;2.00;;;1.50;;
16642;SDS011;8435;52.184;5.406;2023-04-03T02:50:39;4.33;;;1.70;;
16642;SDS011;8435;52.184;5.406;2023-04-03T02:53:06;4.97;;;2.00;;
16642;SDS011;8435;52.184;5.406;2023-04-03T02:55:35;3.77;;;1.40;;
16642;SDS011;8435;52.184;5.406;2023-04-03T02:58:03;2.27;;;1.53;;
16642;SDS011;8435;52.184;5.406;2023-04-03T03:00:30;3.00;;;1.33;;
16642;SDS011;8435;52.184;5.406;2023-04-03T03:02:56;2.07;;;1.50;;
16642;SDS011;8435;52.184;5.406;2023-04-03T03:05:23;2.70;;;1.57;;
16642;SDS011;8435;52.184;5.406;2023-04-03T03:07:50;4.40;;;1.70;;
16642;SDS011;8435;52.184;5.406;2023-04-03T03:10:17;2.80;;;1.50;;
16642;SDS011;8435;52.184;5.406;2023-04-03T03:12:45;1.63;;;1.33;;
16642;SDS011;8435;52.184;5.406;2023-04-03T03:15:14;3.50;;;1.60;;
16642;SDS011;8435;52.184;5.406;2023-04-03T03:17:42;2.50;;;1.40;;
16642;SDS011;8435;52.184;5.406;2023-04-03T03:20:09;2.43;;;1.43;;
16642;SDS011;8435;52.184;5.406;2023-04-03T03:22:39;3.07;;;1.80;;
16642;SDS011;8435;52.184;5.406;2023-04-03T03:25:06;3.20;;;1.70;;
16642;SDS011;8435;52.184;5.406;2023-04-03T03:27:33;3.30;;;1.77;;
16642;SDS011;8435;52.184;5.406;2023-04-03T03:30:00;2.93;;;1.60;;
16642;SDS011;8435;52.184;5.406;2023-04-03T03:32:28;2.73;;;1.63;;
16642;SDS011;8435;52.184;5.406;2023-04-03T03:34:55;3.83;;;1.33;;
16642;SDS011;8435;52.184;5.406;2023-04-03T03:37:28;2.37;;;1.60;;
16642;SDS011;8435;52.184;5.406;2023-04-03T03:39:55;1.90;;;1.60;;
16642;SDS011;8435;52.184;5.406;2023-04-03T03:42:21;3.37;;;1.73;;
16642;SDS011;8435;52.184;5.406;2023-04-03T03:44:48;3.53;;;1.80;;
16642;SDS011;8435;52.184;5.406;2023-04-03T03:47:15;1.97;;;1.33;;
16642;SDS011;8435;52.184;5.406;2023-04-03T03:49:43;2.63;;;1.57;;
16642;SDS011;8435;52.184;5.406;2023-04-03T03:52:10;1.97;;;1.73;;
16642;SDS011;8435;52.184;5.406;2023-04-03T03:54:37;2.07;;;1.40;;
16642;SDS011;8435;52.184;5.406;2023-04-03T03:57:04;2.43;;;1.70;;
16642;SDS011;8435;52.184;5.406;2023-04-03T03:59:31;4.03;;;1.80;;
16642;SDS011;8435;52.184;5.406;2023-04-03T04:01:58;3.03;;;1.70;;
16642;SDS011;8435;52.184;5.406;2023-04-03T04:04:24;2.60;;;1.50;;
16642;SDS011;8435;52.184;5.406;2023-04-03T04:06:52;2.00;;;1.70;;
16642;SDS011;8435;52.184;5.406;2023-04-03T04:09:19;2.67;;;1.73;;
16642;SDS011;8435;52.184;5.406;2023-04-03T04:11:48;1.90;;;1.70;;
16642;SDS011;8435;52.184;5.406;2023-04-03T04:14:15;2.67;;;1.80;;
16642;SDS011;8435;52.184;5.406;2023-04-03T04:16:41;3.07;;;1.60;;
16642;SDS011;8435;52.184;5.406;2023-04-03T04:19:08;2.47;;;1.90;;
16642;SDS011;8435;52.184;5.406;2023-04-03T04:21:35;4.77;;;1.70;;
16642;SDS011;8435;52.184;5.406;2023-04-03T04:24:04;1.83;;;1.47;;
16642;SDS011;8435;52.184;5.406;2023-04-03T04:26:31;3.83;;;2.20;;
16642;SDS011;8435;52.184;5.406;2023-04-03T04:28:58;2.93;;;1.80;;
16642;SDS011;8435;52.184;5.406;2023-04-03T04:31:24;2.50;;;1.70;;
16642;SDS011;8435;52.184;5.406;2023-04-03T04:33:52;2.30;;;1.67;;
16642;SDS011;8435;52.184;5.406;2023-04-03T04:36:21;2.40;;;1.80;;
16642;SDS011;8435;52.184;5.406;2023-04-03T04:38:48;3.87;;;2.17;;
16642;SDS011;8435;52.184;5.406;2023-04-03T04:41:19;2.37;;;1.80;;
16642;SDS011;8435;52.184;5.406;2023-04-03T04:43:47;3.80;;;1.97;;
16642;SDS011;8435;52.184;5.406;2023-04-03T04:46:14;3.57;;;2.20;;
16642;SDS011;8435;52.184;5.406;2023-04-03T04:48:41;2.63;;;2.00;;
16642;SDS011;8435;52.184;5.406;2023-04-03T04:51:08;3.47;;;1.53;;
16642;SDS011;8435;52.184;5.406;2023-04-03T04:53:35;2.70;;;1.50;;
16642;SDS011;8435;52.184;5.406;2023-04-03T04:56:05;3.17;;;1.80;;
16642;SDS011;8435;52.184;5.406;2023-04-03T04:58:33;2.63;;;1.70;;
16642;SDS011;8435;52.184;5.406;2023-04-03T05:01:04;2.60;;;1.67;;
16642;SDS011;8435;52.184;5.406;2023-04-03T05:03:31;2.23;;;1.80;;
16642;SDS011;8435;52.184;5.406;2023-04-03T05:05:58;4.90;;;2.00;;
16642;SDS011;8435;52.184;5.406;2023-04-03T05:08:25;2.60;;;1.80;;
16642;SDS011;8435;52.184;5.406;2023-04-03T05:10:52;6.10;;;2.20;;
16642;SDS011;8435;52.184;5.406;2023-04-03T05:13:19;4.03;;;1.73;;
16642;SDS011;8435;52.184;5.406;2023-04-03T05:15:47;4.23;;;2.00;;
16642;SDS011;8435;52.184;5.406;2023-04-03T05:18:14;3.30;;;1.63;;
16642;SDS011;8435;52.184;5.406;2023-04-03T05:20:41;4.20;;;2.37;;
16642;SDS011;8435;52.184;5.406;2023-04-03T05:23:09;3.23;;;1.80;;
16642;SDS011;8435;52.184;5.406;2023-04-03T05:25:36;3.27;;;1.60;;
16642;SDS011;8435;52.184;5.406;2023-04-03T05:28:03;2.93;;;2.10;;
16642;SDS011;8435;52.184;5.406;2023-04-03T05:30:30;3.13;;;2.33;;
16642;SDS011;8435;52.184;5.406;2023-04-03T05:32:59;2.43;;;2.00;;
16642;SDS011;8435;52.184;5.406;2023-04-03T05:35:26;2.27;;;1.77;;
16642;SDS011;8435;52.184;5.406;2023-04-03T05:37:53;4.03;;;1.87;;
16642;SDS011;8435;52.184;5.406;2023-04-03T05:40:19;2.63;;;1.73;;
16642;SDS011;8435;52.184;5.406;2023-04-03T05:42:46;4.43;;;2.03;;
16642;SDS011;8435;52.184;5.406;2023-04-03T05:45:13;3.07;;;1.73;;
16642;SDS011;8435;52.184;5.406;2023-04-03T05:47:40;2.80;;;1.90;;
16642;SDS011;8435;52.184;5.406;2023-04-03T05:50:08;3.77;;;2.10;;
16642;SDS011;8435;52.184;5.406;2023-04-03T05:52:36;4.13;;;1.73;;
16642;SDS011;8435;52.184;5.406;2023-04-03T05:55:06;2.93;;;2.00;;
16642;SDS011;8435;52.184;5.406;2023-04-03T05:57:34;3.17;;;1.97;;
16642;SDS011;8435;52.184;5.406;2023-04-03T06:00:00;5.77;;;2.10;;
16642;SDS011;8435;52.184;5.406;2023-04-03T06:02:28;2.03;;;1.80;;
16642;SDS011;8435;52.184;5.406;2023-04-03T06:04:56;3.93;;;1.83;;
16642;SDS011;8435;52.184;5.406;2023-04-03T06:07:24;2.40;;;1.63;;
16642;SDS011;8435;52.184;5.406;2023-04-03T06:09:53;3.57;;;2.00;;
16642;SDS011;8435;52.184;5.406;2023-04-03T06:12:21;2.90;;;2.00;;
16642;SDS011;8435;52.184;5.406;2023-04-03T06:14:48;4.07;;;2.20;;
16642;SDS011;8435;52.184;5.406;2023-04-03T06:17:17;3.00;;;1.60;;
16642;SDS011;8435;52.184;5.406;2023-04-03T06:19:45;3.50;;;1.77;;
16642;SDS011;8435;52.184;5.406;2023-04-03T06:22:12;2.70;;;1.43;;
16642;SDS011;8435;52.184;5.406;2023-04-03T06:24:41;3.33;;;2.07;;
16642;SDS011;8435;52.184;5.406;2023-04-03T06:27:09;2.70;;;1.80;;
16642;SDS011;8435;52.184;5.406;2023-04-03T06:29:36;3.97;;;1.90;;
16642;SDS011;8435;52.184;5.406;2023-04-03T06:32:03;3.93;;;2.23;;
16642;SDS011;8435;52.184;5.406;2023-04-03T06:34:30;2.63;;;2.03;;
16642;SDS011;8435;52.184;5.406;2023-04-03T06:36:57;2.33;;;1.60;;
16642;SDS011;8435;52.184;5.406;2023-04-03T06:39:24;2.67;;;1.80;;
16642;SDS011;8435;52.184;5.406;2023-04-03T06:41:52;3.20;;;1.80;;
16642;SDS011;8435;52.184;5.406;2023-04-03T06:44:19;3.73;;;2.30;;
16642;SDS011;8435;52.184;5.406;2023-04-03T06:46:46;2.03;;;1.63;;
16642;SDS011;8435;52.184;5.406;2023-04-03T06:49:13;3.20;;;1.80;;
16642;SDS011;8435;52.184;5.406;2023-04-03T06:51:40;2.77;;;1.90;;
16642;SDS011;8435;52.184;5.406;2023-04-03T06:54:07;3.80;;;1.77;;
16642;SDS011;8435;52.184;5.406;2023-04-03T06:56:34;3.90;;;1.90;;
16642;SDS011;8435;52.184;5.406;2023-04-03T06:59:02;2.07;;;1.63;;
16642;SDS011;8435;52.184;5.406;2023-04-03T07:01:29;2.70;;;1.80;;
16642;SDS011;8435;52.184;5.406;2023-04-03T07:03:59;2.13;;;1.77;;
16642;SDS011;8435;52.184;5.406;2023-04-03T07:06:28;2.77;;;1.87;;
16642;SDS011;8435;52.184;5.406;2023-04-03T07:08:56;3.87;;;1.73;;
16642;SDS011;8435;52.184;5.406;2023-04-03T07:11:23;2.50;;;1.70;;
16642;SDS011;8435;52.184;5.406;2023-04-03T07:13:51;2.27;;;1.63;;
16642;SDS011;8435;52.184;5.406;2023-04-03T07:16:19;2.73;;;1.80;;
16642;SDS011;8435;52.184;5.406;2023-04-03T07:18:48;2.63;;;1.60;;
16642;SDS011;8435;52.184;5.406;2023-04-03T07:21:16;2.80;;;1.60;;
16642;SDS011;8435;52.184;5.406;2023-04-03T07:23:43;3.20;;;1.80;;
16642;SDS011;8435;52.184;5.406;2023-04-03T07:26:09;2.77;;;1.67;;
16642;SDS011;8435;52.184;5.406;2023-04-03T07:28:36;4.00;;;1.80;;
16642;SDS011;8435;52.184;5.406;2023-04-03T07:31:05;3.10;;;1.60;;
16642;SDS011;8435;52.184;5.406;2023-04-03T07:33:35;2.10;;;1.90;;
16642;SDS011;8435;52.184;5.406;2023-04-03T07:36:02;2.10;;;1.40;;
16642;SDS011;8435;52.184;5.406;2023-04-03T07:38:30;2.37;;;1.47;;
16642;SDS011;8435;52.184;5.406;2023-04-03T07:40:57;1.83;;;1.47;;
16642;SDS011;8435;52.184;5.406;2023-04-03T07:43:23;3.00;;;1.67;;
16642;SDS011;8435;52.184;5.406;2023-04-03T07:45:51;1.83;;;1.23;;
16642;SDS011;8435;52.184;5.406;2023-04-03T07:48:19;3.73;;;1.50;;
16642;SDS011;8435;52.184;5.406;2023-04-03T07:50:51;3.67;;;1.63;;
16642;SDS011;8435;52.184;5.406;2023-04-03T07:53:20;2.60;;;1.60;;
16642;SDS011;8435;52.184;5.406;2023-04-03T07:55:49;3.23;;;1.53;;
16642;SDS011;8435;52.184;5.406;2023-04-03T07:58:20;2.20;;;1.43;;
16642;SDS011;8435;52.184;5.406;2023-04-03T08:00:47;1.40;;;1.30;;
16642;SDS011;8435;52.184;5.406;2023-04-03T08:03:14;2.50;;;1.50;;
16642;SDS011;8435;52.184;5.406;2023-04-03T08:05:43;1.80;;;1.50;;
16642;SDS011;8435;52.184;5.406;2023-04-03T08:08:15;1.73;;;1.40;;
16642;SDS011;8435;52.184;5.406;2023-04-03T08:10:47;4.07;;;1.53;;
16642;SDS011;8435;52.184;5.406;2023-04-03T08:13:15;2.53;;;1.67;;
16642;SDS011;8435;52.184;5.406;2023-04-03T08:15:45;2.67;;;1.63;;
16642;SDS011;8435;52.184;5.406;2023-04-03T08:18:12;1.87;;;1.37;;
16642;SDS011;8435;52.184;5.406;2023-04-03T08:20:39;1.43;;;1.33;;
16642;SDS011;8435;52.184;5.406;2023-04-03T08:23:07;2.57;;;1.40;;
16642;SDS011;8435;52.184;5.406;2023-04-03T08:25:37;2.20;;;1.23;;
16642;SDS011;8435;52.184;5.406;2023-04-03T08:28:04;2.60;;;1.40;;
16642;SDS011;8435;52.184;5.406;2023-04-03T08:30:38;3.03;;;1.33;;
16642;SDS011;8435;52.184;5.406;2023-04-03T08:33:05;1.60;;;1.13;;
16642;SDS011;8435;52.184;5.406;2023-04-03T08:35:32;1.93;;;1.00;;
16642;SDS011;8435;52.184;5.406;2023-04-03T08:37:59;2.63;;;1.33;;
16642;SDS011;8435;52.184;5.406;2023-04-03T08:40:29;2.40;;;1.00;;
16642;SDS011;8435;52.184;5.406;2023-04-03T08:42:59;1.80;;;1.17;;
16642;SDS011;8435;52.184;5.406;2023-04-03T08:45:37;2.50;;;1.10;;
16642;SDS011;8435;52.184;5.406;2023-04-03T08:48:12;2.37;;;1.10;;
16642;SDS011;8435;52.184;5.406;2023-04-03T08:50:42;2.60;;;1.00;;
16642;SDS011;8435;52.184;5.406;2023-04-03T08:53:15;2.63;;;1.20;;
16642;SDS011;8435;52.184;5.406;2023-04-03T08:55:47;1.33;;;0.90;;
16642;SDS011;8435;52.184;5.406;2023-04-03T08:58:18;1.20;;;0.90;;
16642;SDS011;8435;52.184;5.406;2023-04-03T09:00:48;1.20;;;0.97;;
16642;SDS011;8435;52.184;5.406;2023-04-03T09:03:19;0.90;;;0.80;;
16642;SDS011;8435;52.184;5.406;2023-04-03T09:05:52;1.43;;;0.80;;
16642;SDS011;8435;52.184;5.406;2023-04-03T09:08:25;1.00;;;0.90;;
16642;SDS011;8435;52.184;5.406;2023-04-03T09:10:58;0.97;;;0.80;;
16642;SDS011;8435;52.184;5.406;2023-04-03T09:13:34;1.57;;;0.83;;
16642;SDS011;8435;52.184;5.406;2023-04-03T09:16:15;1.77;;;0.80;;
16642;SDS011;8435;52.184;5.406;2023-04-03T09:18:52;0.90;;;0.80;;
16642;SDS011;8435;52.184;5.406;2023-04-03T09:21:34;0.47;;;0.47;;
16642;SDS011;8435;52.184;5.406;2023-04-03T09:24:07;0.60;;;0.60;;
16642;SDS011;8435;52.184;5.406;2023-04-03T09:26:37;0.90;;;0.60;;
16642;SDS011;8435;52.184;5.406;2023-04-03T09:29:13;1.57;;;0.90;;
16642;SDS011;8435;52.184;5.406;2023-04-03T09:31:43;0.93;;;0.60;;
16642;SDS011;8435;52.184;5.406;2023-04-03T09:34:14;0.87;;;0.50;;
16642;SDS011;8435;52.184;5.406;2023-04-03T09:36:47;0.80;;;0.53;;
16642;SDS011;8435;52.184;5.406;2023-04-03T09:39:15;1.73;;;0.50;;
16642;SDS011;8435;52.184;5.406;2023-04-03T09:41:54;1.23;;;0.70;;
16642;SDS011;8435;52.184;5.406;2023-04-03T09:44:25;0.87;;;0.50;;
16642;SDS011;8435;52.184;5.406;2023-04-03T09:46:53;0.53;;;0.50;;
16642;SDS011;8435;52.184;5.406;2023-04-03T09:49:20;1.93;;;0.50;;
16642;SDS011;8435;52.184;5.406;2023-04-03T09:51:47;1.40;;;0.57;;
16642;SDS011;8435;52.184;5.406;2023-04-03T09:54:33;0.73;;;0.40;;
16642;SDS011;8435;52.184;5.406;2023-04-03T09:57:07;0.67;;;0.67;;
16642;SDS011;8435;52.184;5.406;2023-04-03T09:59:42;0.70;;;0.67;;
16642;SDS011;8435;52.184;5.406;2023-04-03T10:02:23;0.63;;;0.60;;
16642;SDS011;8435;52.184;5.406;2023-04-03T10:04:58;0.83;;;0.60;;
16642;SDS011;8435;52.184;5.406;2023-04-03T10:07:32;1.07;;;0.40;;
16642;SDS011;8435;52.184;5.406;2023-04-03T10:10:02;0.60;;;0.60;;
16642;SDS011;8435;52.184;5.406;2023-04-03T10:12:48;1.40;;;0.67;;
16642;SDS011;8435;52.184;5.406;2023-04-03T10:15:30;0.43;;;0.43;;
16642;SDS011;8435;52.184;5.406;2023-04-03T10:18:04;1.20;;;0.53;;
16642;SDS011;8435;52.184;5.406;2023-04-03T10:20:37;1.03;;;0.47;;
16642;SDS011;8435;52.184;5.406;2023-04-03T10:23:14;1.40;;;0.50;;
16642;SDS011;8435;52.184;5.406;2023-04-03T10:25:47;0.40;;;0.40;;
16642;SDS011;8435;52.184;5.406;2023-04-03T10:28:23;0.60;;;0.40;;
16642;SDS011;8435;52.184;5.406;2023-04-03T10:31:00;0.70;;;0.70;;
16642;SDS011;8435;52.184;5.406;2023-04-03T10:33:39;0.63;;;0.60;;
16642;SDS011;8435;52.184;5.406;2023-04-03T10:36:23;0.67;;;0.67;;
16642;SDS011;8435;52.184;5.406;2023-04-03T10:38:57;0.70;;;0.60;;
16642;SDS011;8435;52.184;5.406;2023-04-03T10:41:37;0.60;;;0.53;;
16642;SDS011;8435;52.184;5.406;2023-04-03T10:44:15;0.60;;;0.60;;
16642;SDS011;8435;52.184;5.406;2023-04-03T10:46:48;0.93;;;0.40;;
16642;SDS011;8435;52.184;5.406;2023-04-03T10:49:26;0.83;;;0.40;;
16642;SDS011;8435;52.184;5.406;2023-04-03T10:52:06;1.60;;;0.50;;
16642;SDS011;8435;52.184;5.406;2023-04-03T10:54:40;0.93;;;0.60;;
16642;SDS011;8435;52.184;5.406;2023-04-03T10:57:14;0.47;;;0.47;;
16642;SDS011;8435;52.184;5.406;2023-04-03T10:59:42;0.60;;;0.40;;
16642;SDS011;8435;52.184;5.406;2023-04-03T11:02:14;0.60;;;0.60;;
16642;SDS011;8435;52.184;5.406;2023-04-03T11:04:50;0.93;;;0.50;;
16642;SDS011;8435;52.184;5.406;2023-04-03T11:07:23;1.23;;;0.60;;
16642;SDS011;8435;52.184;5.406;2023-04-03T11:09:52;0.73;;;0.60;;
16642;SDS011;8435;52.184;5.406;2023-04-03T11:12:24;0.50;;;0.50;;
16642;SDS011;8435;52.184;5.406;2023-04-03T11:14:55;1.03;;;0.70;;
16642;SDS011;8435;52.184;5.406;2023-04-03T11:17:26;0.60;;;0.60;;
16642;SDS011;8435;52.184;5.406;2023-04-03T11:19:59;0.60;;;0.60;;
16642;SDS011;8435;52.184;5.406;2023-04-03T11:22:32;1.90;;;0.80;;
16642;SDS011;8435;52.184;5.406;2023-04-03T11:25:03;1.27;;;0.50;;
16642;SDS011;8435;52.184;5.406;2023-04-03T11:27:41;1.10;;;0.77;;
16642;SDS011;8435;52.184;5.406;2023-04-03T11:30:13;2.07;;;0.70;;
16642;SDS011;8435;52.184;5.406;2023-04-03T11:32:51;1.60;;;0.50;;
16642;SDS011;8435;52.184;5.406;2023-04-03T11:35:28;1.83;;;0.50;;
16642;SDS011;8435;52.184;5.406;2023-04-03T11:37:55;1.40;;;0.70;;
16642;SDS011;8435;52.184;5.406;2023-04-03T11:40:24;0.60;;;0.60;;
16642;SDS011;8435;52.184;5.406;2023-04-03T11:42:53;1.47;;;0.77;;
16642;SDS011;8435;52.184;5.406;2023-04-03T11:45:33;0.50;;;0.50;;
16642;SDS011;8435;52.184;5.406;2023-04-03T11:48:04;0.70;;;0.60;;
16642;SDS011;8435;52.184;5.406;2023-04-03T11:50:39;1.20;;;0.80;;
16642;SDS011;8435;52.184;5.406;2023-04-03T11:53:27;1.10;;;0.87;;
16642;SDS011;8435;52.184;5.406;2023-04-03T11:56:04;1.27;;;0.60;;
16642;SDS011;8435;52.184;5.406;2023-04-03T12:01:49;3.13;;;0.83;;
16642;SDS011;8435;52.184;5.406;2023-04-03T12:04:18;1.57;;;0.60;;
16642;SDS011;8435;52.184;5.406;2023-04-03T12:07:00;0.60;;;0.60;;
16642;SDS011;8435;52.184;5.406;2023-04-03T12:09:56;0.53;;;0.53;;
16642;SDS011;8435;52.184;5.406;2023-04-03T12:12:29;1.33;;;0.60;;
16642;SDS011;8435;52.184;5.406;2023-04-03T12:17:48;1.20;;;0.67;;
16642;SDS011;8435;52.184;5.406;2023-04-03T12:23:24;1.93;;;0.70;;
16642;SDS011;8435;52.184;5.406;2023-04-03T12:25:59;1.43;;;0.70;;
16642;SDS011;8435;52.184;5.406;2023-04-03T12:28:29;1.07;;;0.87;;
16642;SDS011;8435;52.184;5.406;2023-04-03T12:31:03;1.73;;;1.20;;
16642;SDS011;8435;52.184;5.406;2023-04-03T12:33:33;2.30;;;1.30;;
16642;SDS011;8435;52.184;5.406;2023-04-03T12:36:12;7.13;;;5.40;;
16642;SDS011;8435;52.184;5.406;2023-04-03T12:41:53;4.03;;;3.37;;
16642;SDS011;8435;52.184;5.406;2023-04-03T12:44:40;3.83;;;1.83;;
16642;SDS011;8435;52.184;5.406;2023-04-03T12:47:19;1.57;;;1.37;;
16642;SDS011;8435;52.184;5.406;2023-04-03T12:49:57;1.10;;;0.87;;
16642;SDS011;8435;52.184;5.406;2023-04-03T12:52:32;3.23;;;2.23;;
16642;SDS011;8435;52.184;5.406;2023-04-03T12:55:03;2.10;;;1.00;;
16642;SDS011;8435;52.184;5.406;2023-04-03T12:57:40;1.23;;;0.93;;
16642;SDS011;8435;52.184;5.406;2023-04-03T13:00:27;1.40;;;0.70;;
16642;SDS011;8435;52.184;5.406;2023-04-03T13:02:58;0.97;;;0.87;;
16642;SDS011;8435;52.184;5.406;2023-04-03T13:05:26;1.57;;;0.80;;
16642;SDS011;8435;52.184;5.406;2023-04-03T13:07:56;1.60;;;0.70;;
16642;SDS011;8435;52.184;5.406;2023-04-03T13:10:28;1.30;;;0.93;;
16642;SDS011;8435;52.184;5.406;2023-04-03T13:12:56;0.60;;;0.60;;
16642;SDS011;8435;52.184;5.406;2023-04-03T13:15:26;2.50;;;0.90;;
16642;SDS011;8435;52.184;5.406;2023-04-03T13:17:54;0.80;;;0.80;;
16642;SDS011;8435;52.184;5.406;2023-04-03T13:20:23;1.50;;;0.80;;
16642;SDS011;8435;52.184;5.406;2023-04-03T13:22:53;0.93;;;0.73;;
16642;SDS011;8435;52.184;5.406;2023-04-03T13:25:32;1.23;;;0.73;;
16642;SDS011;8435;52.184;5.406;2023-04-03T13:28:01;1.93;;;0.97;;
16642;SDS011;8435;52.184;5.406;2023-04-03T13:30:32;1.13;;;0.80;;
16642;SDS011;8435;52.184;5.406;2023-04-03T13:33:03;2.00;;;1.10;;
16642;SDS011;8435;52.184;5.406;2023-04-03T13:35:33;1.30;;;0.90;;
16642;SDS011;8435;52.184;5.406;2023-04-03T13:38:06;1.97;;;1.10;;
16642;SDS011;8435;52.184;5.406;2023-04-03T13:40:48;1.00;;;0.67;;
16642;SDS011;8435;52.184;5.406;2023-04-03T13:43:17;1.23;;;0.90;;
16642;SDS011;8435;52.184;5.406;2023-04-03T13:45:55;1.20;;;1.00;;
16642;SDS011;8435;52.184;5.406;2023-04-03T13:48:24;1.57;;;1.03;;
16642;SDS011;8435;52.184;5.406;2023-04-03T13:50:53;1.60;;;0.90;;
16642;SDS011;8435;52.184;5.406;2023-04-03T13:53:30;1.90;;;1.00;;
16642;SDS011;8435;52.184;5.406;2023-04-03T13:56:00;1.80;;;0.87;;
16642;SDS011;8435;52.184;5.406;2023-04-03T13:58:33;2.00;;;0.90;;
16642;SDS011;8435;52.184;5.406;2023-04-03T14:01:06;0.77;;;0.77;;
16642;SDS011;8435;52.184;5.406;2023-04-03T14:03:37;0.97;;;0.70;;
16642;SDS011;8435;52.184;5.406;2023-04-03T14:06:08;1.70;;;1.00;;
16642;SDS011;8435;52.184;5.406;2023-04-03T14:08:38;1.00;;;0.80;;
16642;SDS011;8435;52.184;5.406;2023-04-03T14:11:08;1.67;;;1.00;;
16642;SDS011;8435;52.184;5.406;2023-04-03T14:13:38;1.53;;;0.90;;
16642;SDS011;8435;52.184;5.406;2023-04-03T14:16:05;1.77;;;1.10;;
16642;SDS011;8435;52.184;5.406;2023-04-03T14:18:35;1.23;;;1.00;;
16642;SDS011;8435;52.184;5.406;2023-04-03T14:21:04;1.60;;;0.87;;
16642;SDS011;8435;52.184;5.406;2023-04-03T14:23:31;1.83;;;1.20;;
16642;SDS011;8435;52.184;5.406;2023-04-03T14:26:01;1.10;;;0.90;;
16642;SDS011;8435;52.184;5.406;2023-04-03T14:28:31;1.90;;;0.90;;
16642;SDS011;8435;52.184;5.406;2023-04-03T14:30:58;1.40;;;0.90;;
16642;SDS011;8435;52.184;5.406;2023-04-03T14:33:26;1.00;;;0.90;;
16642;SDS011;8435;52.184;5.406;2023-04-03T14:35:58;1.57;;;0.80;;
16642;SDS011;8435;52.184;5.406;2023-04-03T14:38:26;0.97;;;0.93;;
16642;SDS011;8435;52.184;5.406;2023-04-03T14:40:55;0.93;;;0.90;;
16642;SDS011;8435;52.184;5.406;2023-04-03T14:43:24;2.90;;;1.13;;
16642;SDS011;8435;52.184;5.406;2023-04-03T14:45:51;1.37;;;0.90;;
16642;SDS011;8435;52.184;5.406;2023-04-03T14:48:20;0.80;;;0.80;;
16642;SDS011;8435;52.184;5.406;2023-04-03T14:50:50;1.43;;;0.80;;
16642;SDS011;8435;52.184;5.406;2023-04-03T14:53:18;1.70;;;1.00;;
16642;SDS011;8435;52.184;5.406;2023-04-03T14:55:47;2.00;;;1.20;;
16642;SDS011;8435;52.184;5.406;2023-04-03T14:58:16;1.80;;;1.40;;
16642;SDS011;8435;52.184;5.406;2023-04-03T15:00:45;2.77;;;1.47;;
16642;SDS011;8435;52.184;5.406;2023-04-03T15:03:13;3.63;;;1.60;;
16642;SDS011;8435;52.184;5.406;2023-04-03T15:05:41;2.57;;;1.37;;
16642;SDS011;8435;52.184;5.406;2023-04-03T15:08:13;3.53;;;1.20;;
16642;SDS011;8435;52.184;5.406;2023-04-03T15:10:48;1.70;;;1.10;;
16642;SDS011;8435;52.184;5.406;2023-04-03T15:13:17;1.23;;;1.00;;
16642;SDS011;8435;52.184;5.406;2023-04-03T15:15:46;1.73;;;1.10;;
16642;SDS011;8435;52.184;5.406;2023-04-03T15:18:15;1.83;;;1.17;;
16642;SDS011;8435;52.184;5.406;2023-04-03T15:20:44;1.87;;;1.27;;
16642;SDS011;8435;52.184;5.406;2023-04-03T15:23:13;1.10;;;1.00;;
16642;SDS011;8435;52.184;5.406;2023-04-03T15:25:41;1.33;;;1.10;;
16642;SDS011;8435;52.184;5.406;2023-04-03T15:28:09;2.57;;;1.40;;
16642;SDS011;8435;52.184;5.406;2023-04-03T15:30:40;1.77;;;1.10;;